Murmansk, Russia
Current Conditions -  °F | °C
As of 4:00 AM on Monday 24 Nov 2014 (Local Time) from ULMM Reporting Station
Broken Clouds Broken Clouds  
Wind Chill: 17°   Ceiling: 1200
Heat Index: 23°   Visibility: 6mi
Dew Point: 19°   Wind: 4mph
Humidity: 86%   Direction: 240°WSW
Pressure: 30.15"   Gusts: NA
Location:  68.96°N, 33.08°E
Report Text: ULMM 240100Z 24002MPS 9999 BKN012 M05/M07 Q1021 NOSIG RMK QFE758 31690140
Loading
Personal Weather Stations






























Interactive Weather Map New forecast layout! Learn more

10-Day Weather Forecast

Advertisements
Track Severe Weather on mobile